This is the latest recevied weather packets stored in our database for station/object PU5BHV. If no packets are shown the sender has not sent any weather packets the latest 10 day(s).
| Time | Temp. | Humidity | Pressure | Rain* | Wind** | Luminosity | Snow |
|---|---|---|---|---|---|---|---|
| 1777657751 | 27.78° C | 68% | 1016.2 hPa | 0 mm | - | 399 W/m² | - |
| 1777657449 | 27.78° C | 70% | 1016.3 hPa | 0 mm | - | 244 W/m² | - |
| 1777657146 | 28.33° C | 67% | 1016.5 hPa | 0 mm | - | 471 W/m² | - |
| 1777656844 | 27.78° C | 68% | 1016.4 hPa | 0 mm | - | 411 W/m² | - |
| 1777656539 | 27.22° C | 68% | 1016.3 hPa | 0 mm | - | 426 W/m² | - |
| 1777656234 | 27.22° C | 68% | 1016.7 hPa | 0 mm | - | 264 W/m² | - |
| 1777655930 | 27.78° C | 69% | 1016.7 hPa | 0 mm | - | 295 W/m² | - |
| 1777655627 | 27.78° C | 67% | 1016.8 hPa | 0 mm | - | 550 W/m² | - |
| 1777655324 | 28.33° C | 67% | 1016.7 hPa | 0 mm | - | 539 W/m² | - |
| 1777655021 | 27.22° C | 68% | 1016.8 hPa | 0 mm | - | 460 W/m² | - |
| 1777654718 | 27.22° C | 69% | 1016.8 hPa | 0 mm | - | 592 W/m² | - |
| 1777654416 | 28.33° C | 69% | 1016.9 hPa | 0 mm | - | 578 W/m² | - |
| 1777654113 | 28.33° C | 67% | 1016.9 hPa | 0 mm | - | 566 W/m² | - |
| 1777653811 | 28.89° C | 66% | 1016.8 hPa | 0 mm | - | 361 W/m² | - |
| 1777653507 | 27.78° C | 68% | 1017.1 hPa | 0 mm | - | 484 W/m² | - |
| 1777653204 | 27.78° C | 68% | 1017.4 hPa | 0 mm | - | 399 W/m² | - |
| 1777652901 | 27.22° C | 70% | 1017.4 hPa | 0 mm | - | 666 W/m² | - |
| 1777652597 | 26.67° C | 72% | 1017.4 hPa | 0 mm | - | 590 W/m² | - |
| 1777652294 | 26.67° C | 72% | 1017.6 hPa | 0 mm | - | 133 W/m² | - |
| 1777651991 | 27.22° C | 71% | 1017.5 hPa | 0 mm | - | 310 W/m² | - |
| 1777651688 | 26.67° C | 72% | 1017.7 hPa | 0 mm | - | 509 W/m² | - |
| 1777651384 | 26.67° C | 72% | 1017.7 hPa | 0 mm | - | 252 W/m² | - |
| 1777651082 | 26.67° C | 71% | 1017.9 hPa | 0 mm | - | 179 W/m² | - |
| 1777650778 | 27.78° C | 70% | 1018 hPa | 0 mm | - | 173 W/m² | - |
| 1777650475 | 27.78° C | 68% | 1018 hPa | 0 mm | - | 649 W/m² | - |
* Rain latest hour (hover to see other rain measurements)
** Current wind speed in m/s (hover to see current wind gust speed)